Time;durP1;ratioP1;P1;durP2;ratioP2;P2;SDS_P1;SDS_P2;PMS_P1;PMS_P2;Temp;Humidity;BMP_temperature;BMP_pressure;BME280_temperature;BME280_humidity;BME280_pressure;Samples;Min_cycle;Max_cycle;Signal;HPM_P1;HPM_P2
2023/09/16 00:02:20;;;;;;;1999.90;999.90;;;;;;;14.85;100.00;94144.16;5004213;28;20271;-52
2023/09/16 00:04:46;;;;;;;1999.90;999.90;;;;;;;14.83;100.00;94139.13;5004063;28;20196;-52
2023/09/16 00:07:11;;;;;;;1999.90;999.90;;;;;;;14.82;100.00;94145.84;5005433;28;20195;-48
2023/09/16 00:09:38;;;;;;;1999.90;999.90;;;;;;;14.80;100.00;94140.06;5008142;28;20250;-47
2023/09/16 00:12:03;;;;;;;1999.90;999.90;;;;;;;14.78;100.00;94142.50;5007998;28;20211;-46
2023/09/16 00:14:29;;;;;;;1999.90;999.90;;;;;;;14.79;100.00;94141.28;5008080;28;20267;-52
2023/09/16 00:16:58;;;;;;;1999.90;999.90;;;;;;;14.76;100.00;94147.72;5008012;28;20207;-46
2023/09/16 00:19:23;;;;;;;1999.90;999.90;;;;;;;14.73;100.00;94147.84;5007880;28;20187;-47
2023/09/16 00:21:49;;;;;;;1999.90;999.90;;;;;;;14.70;100.00;94160.53;5007905;28;20227;-48
2023/09/16 00:24:14;;;;;;;1999.90;999.90;;;;;;;14.67;100.00;94155.19;5008002;28;20221;-47
2023/09/16 00:26:40;;;;;;;1999.90;999.90;;;;;;;14.62;100.00;94145.59;5008345;28;20261;-46
2023/09/16 00:29:06;;;;;;;1999.90;999.90;;;;;;;14.60;100.00;94156.25;5008195;28;20242;-50
2023/09/16 00:31:33;;;;;;;1999.90;999.90;;;;;;;14.57;100.00;94146.19;5007640;28;20218;-47
2023/09/16 00:33:58;;;;;;;1999.90;999.90;;;;;;;14.52;100.00;94149.56;5007892;28;20230;-47
2023/09/16 00:36:24;;;;;;;1999.90;999.90;;;;;;;14.51;100.00;94152.75;5007702;28;20201;-47
2023/09/16 00:38:49;;;;;;;1999.90;999.90;;;;;;;14.50;100.00;94146.50;5007727;28;20267;-46
2023/09/16 00:41:15;;;;;;;1999.90;999.90;;;;;;;14.49;100.00;94144.97;5007726;28;20210;-46
2023/09/16 00:43:40;;;;;;;1999.90;999.90;;;;;;;14.46;100.00;94145.88;5007542;28;20191;-45
2023/09/16 00:46:06;;;;;;;1999.90;999.90;;;;;;;14.45;100.00;94140.84;5007620;28;20196;-46
2023/09/16 00:48:31;;;;;;;1999.90;999.90;;;;;;;14.43;100.00;94135.84;5007458;28;20242;-49
2023/09/16 00:50:57;;;;;;;1999.90;999.90;;;;;;;14.42;100.00;94139.78;5007367;28;20219;-50
2023/09/16 00:53:23;;;;;;;1999.90;999.90;;;;;;;14.40;100.00;94144.22;5007211;28;20196;-48
2023/09/16 00:55:49;;;;;;;1999.90;999.90;;;;;;;14.39;100.00;94151.69;5007691;28;20226;-47
2023/09/16 00:58:17;;;;;;;1999.90;999.90;;;;;;;14.38;100.00;94141.91;5007650;28;20207;-46
2023/09/16 01:00:44;;;;;;;1999.90;999.90;;;;;;;14.37;100.00;94143.16;5007477;28;20196;-47
2023/09/16 01:03:09;;;;;;;1999.90;999.90;;;;;;;14.35;100.00;94159.31;5007142;28;20246;-47
2023/09/16 01:05:35;;;;;;;1999.90;999.90;;;;;;;14.33;100.00;94156.28;5007151;28;20271;-46
2023/09/16 01:08:01;;;;;;;1999.90;999.90;;;;;;;14.31;100.00;94168.94;5007045;28;20222;-46
2023/09/16 01:10:26;;;;;;;1999.90;999.90;;;;;;;14.30;100.00;94159.94;5007021;28;20270;-46
2023/09/16 01:12:54;;;;;;;1999.90;999.90;;;;;;;14.29;100.00;94158.41;5006941;28;20400;-45
2023/09/16 01:15:22;;;;;;;1999.90;999.90;;;;;;;14.30;100.00;94153.66;5007047;28;20484;-48
2023/09/16 01:18:10;;;;;;;1999.90;999.90;;;;;;;14.26;100.00;94164.81;5006536;28;20202;-46
2023/09/16 01:20:38;;;;;;;1999.90;999.90;;;;;;;14.17;100.00;94164.75;5007136;28;20191;-47
2023/09/16 01:23:04;;;;;;;1999.90;999.90;;;;;;;14.18;100.00;94157.28;5006812;28;20234;-48
2023/09/16 01:25:30;;;;;;;1999.90;999.90;;;;;;;14.18;100.00;94165.53;5006739;28;20191;-49
2023/09/16 01:27:56;;;;;;;1999.90;999.90;;;;;;;14.13;100.00;94155.91;5007133;28;20219;-46
2023/09/16 01:30:25;;;;;;;1999.90;999.90;;;;;;;14.12;100.00;94151.63;5006838;28;20192;-49
2023/09/16 01:33:16;;;;;;;1999.90;999.90;;;;;;;13.99;100.00;94151.00;5006975;28;20222;-45
2023/09/16 01:35:45;;;;;;;1999.90;999.90;;;;;;;13.86;100.00;94157.84;5006980;28;20188;-47
2023/09/16 01:38:14;;;;;;;1999.90;999.90;;;;;;;13.87;100.00;94153.91;5006756;28;20199;-47
2023/09/16 01:40:43;;;;;;;1999.90;999.90;;;;;;;13.87;100.00;94165.63;5006922;28;20267;-46
2023/09/16 01:43:08;;;;;;;1999.90;999.90;;;;;;;13.90;100.00;94161.19;5006356;28;20176;-51
2023/09/16 01:45:44;;;;;;;1999.90;999.90;;;;;;;13.93;100.00;94163.03;5006748;28;20267;-51
2023/09/16 01:48:11;;;;;;;1999.90;999.90;;;;;;;13.91;100.00;94166.22;5006328;28;20215;-51
2023/09/16 01:50:36;;;;;;;1999.90;999.90;;;;;;;13.90;100.00;94164.72;5006703;28;20206;-52
2023/09/16 01:53:02;;;;;;;1999.90;999.90;;;;;;;13.90;100.00;94159.22;5006467;28;20207;-48
2023/09/16 01:55:30;;;;;;;1999.90;999.90;;;;;;;13.91;100.00;94170.97;5006314;28;20267;-47
2023/09/16 01:57:56;;;;;;;1999.90;999.90;;;;;;;13.91;100.00;94166.22;5006244;28;20234;-48
2023/09/16 02:00:21;;;;;;;1999.90;999.90;;;;;;;13.92;100.00;94167.78;5006171;28;20188;-48
2023/09/16 02:02:47;;;;;;;1999.90;999.90;;;;;;;13.91;100.00;94166.22;5022513;28;20196;-48
2023/09/16 02:05:12;;;;;;;1999.90;999.90;;;;;;;13.89;100.00;94168.69;5006280;28;20199;-48
2023/09/16 02:07:38;;;;;;;1999.90;999.90;;;;;;;13.85;100.00;94168.06;5006615;28;20191;-50
2023/09/16 02:10:03;;;;;;;1999.90;999.90;;;;;;;13.83;100.00;94178.72;5005943;28;20184;-48
2023/09/16 02:12:29;;;;;;;1999.90;999.90;;;;;;;13.85;100.00;94190.03;5006455;28;20228;-46
2023/09/16 02:14:54;;;;;;;1999.90;999.90;;;;;;;13.85;100.00;94190.03;5006237;28;20223;-49
2023/09/16 02:17:20;;;;;;;1999.90;999.90;;;;;;;13.86;100.00;94197.03;5005931;28;20207;-47
2023/09/16 02:19:46;;;;;;;1999.90;999.90;;;;;;;13.86;100.00;94197.03;5005643;28;20199;-49
2023/09/16 02:22:11;;;;;;;1999.90;999.90;;;;;;;13.87;100.00;94195.81;5005663;28;20214;-46
2023/09/16 02:24:36;;;;;;;1999.90;999.90;;;;;;;13.84;100.00;94199.44;5005593;28;20199;-46
2023/09/16 02:27:02;;;;;;;1999.90;999.90;;;;;;;13.80;100.00;94193.34;5005694;28;20200;-49
2023/09/16 02:29:27;;;;;;;1999.90;999.90;;;;;;;13.71;100.00;94207.06;5005133;28;20196;-49
2023/09/16 02:31:53;;;;;;;1999.90;999.90;;;;;;;13.69;100.00;94203.97;5005151;28;20246;-52
2023/09/16 02:34:18;;;;;;;1999.90;999.90;;;;;;;13.69;100.00;94208.72;5005160;28;20195;-52
2023/09/16 02:36:43;;;;;;;1999.90;999.90;;;;;;;13.67;100.00;94213.88;5005621;28;20200;-50
2023/09/16 02:39:09;;;;;;;1999.90;999.90;;;;;;;13.67;100.00;94211.91;5005562;28;20210;-49
2023/09/16 02:41:34;;;;;;;1999.90;999.90;;;;;;;13.69;100.00;94214.22;5005638;28;20187;-46
2023/09/16 02:43:59;;;;;;;1999.90;999.90;;;;;;;13.69;100.00;94217.69;5005950;28;20207;-46
2023/09/16 02:46:25;;;;;;;1999.90;999.90;;;;;;;13.70;100.00;94216.50;5005742;28;20203;-45
2023/09/16 02:48:50;;;;;;;1999.90;999.90;;;;;;;13.74;100.00;94217.13;5005529;28;20203;-47
2023/09/16 02:51:15;;;;;;;1999.90;999.90;;;;;;;13.75;100.00;94235.09;5005220;28;20234;-46
2023/09/16 02:53:41;;;;;;;1999.90;999.90;;;;;;;13.74;100.00;94224.59;5005175;28;20230;-46
2023/09/16 02:56:08;;;;;;;1999.90;999.90;;;;;;;13.72;100.00;94236.00;5021496;28;20484;-46
2023/09/16 02:58:34;;;;;;;1999.90;999.90;;;;;;;13.73;100.00;94229.28;5004822;28;20211;-45
2023/09/16 03:00:59;;;;;;;1999.90;999.90;;;;;;;13.72;100.00;94241.50;5004766;28;20202;-47
2023/09/16 03:03:24;;;;;;;1999.90;999.90;;;;;;;13.74;100.00;94233.59;5005384;28;20200;-48
2023/09/16 03:05:49;;;;;;;1999.90;999.90;;;;;;;13.73;100.00;94237.53;5005314;28;20196;-46
2023/09/16 03:08:15;;;;;;;1999.90;999.90;;;;;;;13.72;100.00;94235.22;5004886;28;20215;-46
2023/09/16 03:10:40;;;;;;;1999.90;999.90;;;;;;;13.70;100.00;94234.94;5005178;28;20200;-48
2023/09/16 03:13:06;;;;;;;1999.90;999.90;;;;;;;13.65;100.00;94230.03;5004663;28;20215;-49
2023/09/16 03:15:34;;;;;;;1999.90;999.90;;;;;;;13.61;100.00;94221.94;5004863;28;20228;-46
2023/09/16 03:17:59;;;;;;;1999.90;999.90;;;;;;;13.61;100.00;94224.69;5005150;28;20231;-47
2023/09/16 03:20:24;;;;;;;1999.90;999.90;;;;;;;13.59;100.00;94235.34;5004668;28;20203;-47
2023/09/16 03:22:50;;;;;;;1999.90;999.90;;;;;;;13.57;100.00;94235.03;5005073;28;20246;-48
2023/09/16 03:25:15;;;;;;;1999.90;999.90;;;;;;;13.56;100.00;94228.03;5004783;28;20200;-50
2023/09/16 03:27:40;;;;;;;1999.90;999.90;;;;;;;13.56;100.00;94238.22;5005200;28;20199;-47
2023/09/16 03:30:06;;;;;;;1999.90;999.90;;;;;;;13.54;100.00;94227.69;5004712;28;20219;-49
2023/09/16 03:32:32;;;;;;;1999.90;999.90;;;;;;;13.50;100.00;94232.56;5004444;28;20212;-50
2023/09/16 03:34:57;;;;;;;1999.90;999.90;;;;;;;13.48;100.00;94224.03;5004983;28;20204;-46
2023/09/16 03:37:22;;;;;;;1999.90;999.90;;;;;;;13.47;100.00;94232.69;5004456;28;20219;-48
2023/09/16 03:39:48;;;;;;;1999.90;999.90;;;;;;;13.45;100.00;94238.63;5004578;28;20231;-49
2023/09/16 03:42:13;;;;;;;1999.90;999.90;;;;;;;13.45;100.00;94238.63;5004748;28;20199;-47
2023/09/16 03:44:39;;;;;;;1999.90;999.90;;;;;;;13.47;100.00;94236.19;5004765;28;20194;-48
2023/09/16 03:47:06;;;;;;;1999.90;999.90;;;;;;;13.45;100.00;94233.16;5004711;28;20235;-46
2023/09/16 03:49:31;;;;;;;1999.90;999.90;;;;;;;13.44;100.00;94242.56;5004882;28;20207;-51
2023/09/16 03:51:57;;;;;;;1999.90;999.90;;;;;;;13.42;100.00;94244.25;5021029;28;20339;-50
2023/09/16 03:54:22;;;;;;;1999.90;999.90;;;;;;;13.42;100.00;94241.50;5004239;28;20508;-50
2023/09/16 03:56:48;;;;;;;1999.90;999.90;;;;;;;13.41;100.00;94245.47;5004321;28;20203;-49
2023/09/16 03:59:13;;;;;;;1999.90;999.90;;;;;;;13.40;100.00;94246.69;5003969;28;20203;-47
2023/09/16 04:01:39;;;;;;;1999.90;999.90;;;;;;;13.41;100.00;94248.19;5004357;28;20214;-48
2023/09/16 04:04:05;;;;;;;1999.90;999.90;;;;;;;13.38;100.00;94255.34;5004743;28;20223;-48
2023/09/16 04:06:30;;;;;;;1999.90;999.90;;;;;;;13.37;100.00;94253.84;5004585;28;20199;-46
2023/09/16 04:08:55;;;;;;;1999.90;999.90;;;;;;;13.37;100.00;94256.56;5004476;28;20191;-47
2023/09/16 04:11:21;;;;;;;1999.90;999.90;;;;;;;13.37;100.00;94258.53;5020353;28;20250;-50
2023/09/16 04:13:46;;;;;;;1999.90;999.90;;;;;;;13.37;100.00;94253.84;5003952;28;20196;-50
2023/09/16 04:16:11;;;;;;;1999.90;999.90;;;;;;;13.36;100.00;94251.53;5004250;28;20252;-47
2023/09/16 04:18:37;;;;;;;1999.90;999.90;;;;;;;13.33;100.00;94250.44;5004253;28;20204;-47
2023/09/16 04:21:03;;;;;;;1999.90;999.90;;;;;;;13.30;100.00;94254.84;5004285;28;20199;-49
2023/09/16 04:23:29;;;;;;;1999.90;999.90;;;;;;;13.25;100.00;94262.88;5004000;28;20219;-48
2023/09/16 04:26:00;;;;;;;1999.90;999.90;;;;;;;13.21;100.00;94259.50;5004291;28;20234;-47
2023/09/16 04:28:25;;;;;;;1999.90;999.90;;;;;;;13.17;100.00;94267.09;5004444;28;20203;-52
2023/09/16 04:30:51;;;;;;;1999.90;999.90;;;;;;;13.15;100.00;94264.81;5003938;28;20227;-46
2023/09/16 04:33:18;;;;;;;1999.90;999.90;;;;;;;13.13;100.00;94274.69;5003747;28;20283;-46
2023/09/16 04:35:45;;;;;;;1999.90;999.90;;;;;;;13.11;100.00;94280.63;5003837;28;20231;-47
2023/09/16 04:38:11;;;;;;;1999.90;999.90;;;;;;;13.14;100.00;94279.72;5004628;28;20200;-47
2023/09/16 04:40:37;;;;;;;1999.90;999.90;;;;;;;13.11;100.00;94279.84;5004001;28;20230;-46
2023/09/16 04:43:03;;;;;;;1999.90;999.90;;;;;;;13.11;100.00;94280.63;5004295;28;20219;-46
2023/09/16 04:45:29;;;;;;;1999.90;999.90;;;;;;;13.12;100.00;94273.16;5004509;28;20173;-46
2023/09/16 04:47:57;;;;;;;1999.90;999.90;;;;;;;13.12;100.00;94278.66;5003751;28;20200;-46
2023/09/16 04:50:22;;;;;;;1999.90;999.90;;;;;;;13.13;100.00;94282.91;5003939;28;20222;-46
2023/09/16 04:52:48;;;;;;;1999.90;999.90;;;;;;;13.12;100.00;94281.38;5003829;28;20211;-46
2023/09/16 04:55:14;;;;;;;1999.90;999.90;;;;;;;13.09;100.00;94266.59;5007548;28;20196;-51
2023/09/16 04:57:40;;;;;;;1999.90;999.90;;;;;;;13.09;100.00;94272.09;5007512;28;20287;-48
2023/09/16 05:00:06;;;;;;;1999.90;999.90;;;;;;;13.08;100.00;94275.28;5007241;28;20199;-49
2023/09/16 05:02:33;;;;;;;1999.90;999.90;;;;;;;13.13;100.00;94269.97;5007310;28;20214;-46
2023/09/16 05:04:59;;;;;;;1999.90;999.90;;;;;;;13.15;100.00;94266.78;5007067;28;20192;-51
2023/09/16 05:07:24;;;;;;;1999.90;999.90;;;;;;;13.34;100.00;94252.72;5007058;28;20199;-50
2023/09/16 05:09:50;;;;;;;1999.90;999.90;;;;;;;13.60;100.00;94253.34;5023473;28;20195;-51
2023/09/16 05:12:15;;;;;;;1999.90;999.90;;;;;;;13.91;100.00;94243.09;5023628;28;20223;-46
2023/09/16 05:14:40;;;;;;;1999.90;999.90;;;;;;;14.19;100.00;94230.97;5006873;28;20243;-50
2023/09/16 05:17:06;;;;;;;1999.90;999.90;;;;;;;14.50;100.00;94212.41;5007044;28;20204;-50
2023/09/16 05:19:31;;;;;;;1999.90;999.90;;;;;;;14.84;100.00;94184.66;5007140;28;20206;-49
2023/09/16 05:21:56;;;;;;;1999.90;999.90;;;;;;;15.04;100.00;94157.41;5006951;28;20387;-46
2023/09/16 05:24:22;;;;;;;1999.90;999.90;;;;;;;15.31;100.00;94132.59;5006873;28;20196;-47
2023/09/16 05:26:48;;;;;;;1999.90;999.90;;;;;;;15.58;100.00;94135.25;5006666;28;20200;-51
2023/09/16 05:29:13;;;;;;;1999.90;999.90;;;;;;;16.01;100.00;94134.72;5007058;28;20269;-47
2023/09/16 05:31:38;;;;;;;1999.90;999.90;;;;;;;16.26;100.00;94142.53;5006391;28;20212;-54
2023/09/16 05:34:04;;;;;;;1999.90;999.90;;;;;;;16.59;100.00;94199.56;5006506;28;20198;-45
2023/09/16 05:36:29;;;;;;;1999.90;999.90;;;;;;;16.94;100.00;94360.50;5007271;28;20196;-47
2023/09/16 05:38:54;;;;;;;1999.90;999.90;;;;;;;17.37;100.00;94586.25;5006236;28;20199;-51
2023/09/16 05:41:20;;;;;;;1999.90;999.90;;;;;;;17.75;100.00;94801.84;5006774;28;20200;-48
2023/09/16 05:43:45;;;;;;;1999.90;999.90;;;;;;;18.09;100.00;94967.25;5006280;28;20191;-47
2023/09/16 05:46:10;;;;;;;1999.90;999.90;;;;;;;18.31;100.00;95076.47;5022707;28;20192;-47
2023/09/16 05:48:36;;;;;;;1999.90;999.90;;;;;;;18.60;100.00;95114.75;5006849;28;21039;-48
2023/09/16 05:51:02;;;;;;;1999.90;999.90;;;;;;;18.74;100.00;95158.41;5006464;28;20295;-47
2023/09/16 05:53:29;;;;;;;1999.90;999.90;;;;;;;18.88;100.00;95179.91;5006669;28;20199;-47
2023/09/16 05:55:54;;;;;;;1999.90;999.90;;;;;;;19.32;100.00;95197.75;5006377;28;20192;-51
2023/09/16 05:58:20;;;;;;;1999.90;999.90;;;;;;;20.04;100.00;95214.16;5006162;28;20203;-49
2023/09/16 06:00:56;;;;;;;1999.90;999.90;;;;;;;20.36;100.00;95235.59;5006250;28;20207;-46
2023/09/16 06:03:21;;;;;;;1999.90;999.90;;;;;;;20.39;100.00;95237.44;5005878;28;20223;-52
2023/09/16 06:05:46;;;;;;;1999.90;999.90;;;;;;;20.86;100.00;95240.25;5004843;28;20305;-53
2023/09/16 06:08:12;;;;;;;1999.90;999.90;;;;;;;21.28;100.00;95252.00;5006112;28;20200;-48
2023/09/16 06:10:37;;;;;;;1999.90;999.90;;;;;;;21.44;100.00;95251.53;5006352;28;20191;-49
2023/09/16 06:13:03;;;;;;;1999.90;999.90;;;;;;;22.02;100.00;95253.59;5005649;28;20208;-52
2023/09/16 06:15:28;;;;;;;1999.90;999.90;;;;;;;22.23;100.00;95260.78;5006230;28;20231;-49
2023/09/16 06:17:54;;;;;;;1999.90;999.90;;;;;;;22.75;100.00;95256.25;5006122;28;20207;-49
2023/09/16 06:20:19;;;;;;;1999.90;999.90;;;;;;;23.21;100.00;95262.69;5006157;28;20199;-51
2023/09/16 06:22:44;;;;;;;1999.90;999.90;;;;;;;23.40;100.00;95261.16;5005863;28;20244;-53
2023/09/16 06:25:10;;;;;;;1999.90;999.90;;;;;;;23.21;100.00;95276.63;5006067;28;20245;-50
2023/09/16 06:27:35;;;;;;;1999.90;999.90;;;;;;;23.49;100.00;95269.38;5005513;28;20199;-54
2023/09/16 06:30:00;;;;;;;1999.90;999.90;;;;;;;23.89;100.00;95264.47;5005609;28;20329;-50
2023/09/16 06:32:26;;;;;;;1999.90;999.90;;;;;;;24.22;100.00;95267.59;5005393;28;20212;-52
2023/09/16 06:34:51;;;;;;;1999.90;999.90;;;;;;;24.26;100.00;95270.91;5005499;28;20271;-50
2023/09/16 06:37:16;;;;;;;1999.90;999.90;;;;;;;24.46;100.00;95262.47;5005292;28;20206;-50
2023/09/16 06:39:45;;;;;;;1999.90;999.90;;;;;;;24.40;100.00;95252.53;5005362;28;20188;-51
2023/09/16 06:42:11;;;;;;;1999.90;999.90;;;;;;;25.22;100.00;95266.25;5005950;28;20218;-49
2023/09/16 06:44:36;;;;;;;1999.90;999.90;;;;;;;25.41;100.00;95261.00;5021452;28;20191;-54
2023/09/16 06:47:01;;;;;;;1999.90;999.90;;;;;;;25.81;100.00;95255.03;5005664;28;20176;-52
2023/09/16 06:49:27;;;;;;;1999.90;999.90;;;;;;;25.61;100.00;95258.78;5005192;28;20218;-51
2023/09/16 06:51:52;;;;;;;1999.90;999.90;;;;;;;25.69;100.00;95254.22;5005262;28;20239;-50
2023/09/16 06:54:17;;;;;;;1999.90;999.90;;;;;;;25.91;100.00;95259.88;5005480;28;20251;-49
2023/09/16 06:56:42;;;;;;;1999.90;999.90;;;;;;;25.80;100.00;95251.44;5004780;28;20191;-49
2023/09/16 06:59:08;;;;;;;1999.90;999.90;;;;;;;26.32;100.00;95258.16;5021448;28;20230;-52
2023/09/16 07:01:34;;;;;;;1999.90;999.90;;;;;;;26.46;100.00;95247.94;5004834;28;20239;-47
2023/09/16 07:04:00;;;;;;;1999.90;999.90;;;;;;;26.73;100.00;95250.75;5004948;28;20195;-48
2023/09/16 07:06:25;;;;;;;1999.90;999.90;;;;;;;27.51;100.00;95254.88;5004889;28;20187;-47
2023/09/16 07:08:51;;;;;;;1999.90;999.90;;;;;;;27.42;100.00;95257.97;5004894;28;20192;-51
2023/09/16 07:11:17;;;;;;;1999.90;999.90;;;;;;;27.18;100.00;95259.81;5004819;28;20203;-47
2023/09/16 07:13:44;;;;;;;1999.90;999.90;;;;;;;27.43;100.00;95256.69;5004765;28;20195;-49
2023/09/16 07:16:13;;;;;;;1999.90;999.90;;;;;;;27.83;100.00;95261.59;5004341;28;20180;-52
2023/09/16 07:18:39;;;;;;;1999.90;999.90;;;;;;;28.23;100.00;95263.63;5005060;28;20234;-49
2023/09/16 07:21:04;;;;;;;1999.90;999.90;;;;;;;28.34;100.00;95262.81;5005033;28;20199;-54
2023/09/16 07:23:30;;;;;;;1999.90;999.90;;;;;;;28.13;100.00;95273.69;5004612;28;20200;-53
2023/09/16 07:25:57;;;;;;;1999.90;999.90;;;;;;;28.04;100.00;95276.03;5004324;28;20187;-49
2023/09/16 07:28:23;;;;;;;1999.90;999.90;;;;;;;27.99;100.00;95277.63;5004552;28;20199;-50
2023/09/16 07:30:49;;;;;;;1999.90;999.90;;;;;;;28.25;100.00;95280.75;5004396;28;20191;-54
2023/09/16 07:33:14;;;;;;;1999.90;999.90;;;;;;;28.03;100.00;95280.91;5004870;28;20287;-52
2023/09/16 07:35:40;;;;;;;1999.90;999.90;;;;;;;28.96;100.00;95277.88;5004678;28;20191;-54
2023/09/16 07:38:05;;;;;;;1999.90;999.90;;;;;;;29.12;100.00;95280.56;5021047;28;20275;-48
2023/09/16 07:40:32;;;;;;;1999.90;999.90;;;;;;;29.09;100.00;95280.84;5021057;28;20184;-52
2023/09/16 07:42:58;;;;;;;1999.90;999.90;;;;;;;29.08;100.00;95282.13;5004083;28;20263;-49
2023/09/16 07:45:23;;;;;;;1999.90;999.90;;;;;;;29.81;100.00;95275.13;5004069;28;20219;-49
2023/09/16 07:47:48;;;;;;;1999.90;999.90;;;;;;;30.09;100.00;95281.16;5004768;28;20211;-50
2023/09/16 07:50:14;;;;;;;1999.90;999.90;;;;;;;29.92;100.00;95283.44;5004513;28;20187;-52
2023/09/16 07:52:39;;;;;;;1999.90;999.90;;;;;;;30.79;100.00;95283.44;5004646;28;20210;-51
2023/09/16 07:55:07;;;;;;;1999.90;999.90;;;;;;;30.84;100.00;95283.34;5004353;28;20222;-50
2023/09/16 07:57:33;;;;;;;1999.90;999.90;;;;;;;31.26;100.00;95287.22;5004042;28;20211;-53
2023/09/16 07:59:58;;;;;;;1999.90;999.90;;;;;;;31.23;100.00;95291.09;5004044;28;20187;-53
2023/09/16 08:02:23;;;;;;;1999.90;999.90;;;;;;;30.57;100.00;95284.56;5004146;28;20223;-53
2023/09/16 08:04:49;;;;;;;1999.90;999.90;;;;;;;30.89;100.00;95293.00;5004734;28;20203;-51
2023/09/16 08:07:14;;;;;;;1999.90;999.90;;;;;;;30.77;100.00;95291.69;5003753;28;20191;-60
2023/09/16 08:09:39;;;;;;;1999.90;999.90;;;;;;;30.93;100.00;95293.47;5004154;28;20195;-62
2023/09/16 08:12:05;;;;;;;1999.90;999.90;;;;;;;31.25;100.00;95297.00;5004054;28;20227;-60
2023/09/16 08:14:30;;;;;;;1999.90;999.90;;;;;;;31.66;100.00;95291.56;5004196;28;20218;-61
2023/09/16 08:16:58;;;;;;;1999.90;999.90;;;;;;;32.28;100.00;95289.75;5003956;28;20176;-61
2023/09/16 08:19:23;;;;;;;1999.90;999.90;;;;;;;31.85;97.58;95286.56;5004449;28;20200;-59
2023/09/16 08:21:49;;;;;;;1999.90;999.90;;;;;;;31.22;100.00;95281.13;5004316;28;20219;-60
2023/09/16 08:24:14;;;;;;;1999.90;999.90;;;;;;;31.45;100.00;95273.75;5004180;28;20196;-61
2023/09/16 08:26:39;;;;;;;1999.90;999.90;;;;;;;31.88;100.00;95279.84;5003884;28;20324;-54
2023/09/16 08:29:05;;;;;;;1999.90;999.90;;;;;;;32.27;100.00;95271.25;5006437;28;20195;-49
2023/09/16 08:31:30;;;;;;;1999.90;999.90;;;;;;;32.08;97.31;95281.22;5007689;28;20227;-53
2023/09/16 08:34:00;;;;;;;1999.90;999.90;;;;;;;32.02;100.00;95278.50;5007546;28;20270;-53
2023/09/16 08:36:25;;;;;;;1999.90;999.90;;;;;;;32.90;90.82;95270.78;5007560;28;20218;-51
2023/09/16 08:38:50;;;;;;;1999.90;999.90;;;;;;;32.13;92.51;95283.91;5007629;28;20192;-52
2023/09/16 08:41:30;;;;;;;1999.90;999.90;;;;;;;31.75;95.92;95277.00;5007608;28;20192;-52
2023/09/16 08:43:59;;;;;;;1999.90;999.90;;;;;;;32.09;97.63;95277.06;5007938;28;20178;-50
2023/09/16 08:46:28;;;;;;;1999.90;999.90;;;;;;;32.45;92.94;95275.97;5008029;28;20200;-54
2023/09/16 08:48:55;;;;;;;1999.90;999.90;;;;;;;32.13;98.91;95278.25;5007811;28;20223;-54
2023/09/16 08:51:21;;;;;;;1999.90;999.90;;;;;;;32.66;91.86;95273.94;5007313;28;20207;-55
2023/09/16 08:53:49;;;;;;;1999.90;999.90;;;;;;;32.05;94.70;95271.75;5007791;28;20265;-52
2023/09/16 08:56:14;;;;;;;1999.90;999.90;;;;;;;32.23;94.51;95270.81;5007364;28;20207;-51
2023/09/16 08:58:41;;;;;;;1999.90;999.90;;;;;;;32.34;93.90;95279.06;5007203;28;20203;-55
2023/09/16 09:01:06;;;;;;;1999.90;999.90;;;;;;;31.72;98.14;95277.34;5007189;28;20200;-56
2023/09/16 09:03:32;;;;;;;1999.90;999.90;;;;;;;32.35;93.73;95274.19;5023461;28;20318;-48
2023/09/16 09:05:58;;;;;;;1999.90;999.90;;;;;;;32.41;89.11;95275.56;5007742;28;20195;-49
2023/09/16 09:08:24;;;;;;;1999.90;999.90;;;;;;;32.43;90.59;95272.97;5007273;28;20231;-51
2023/09/16 09:10:50;;;;;;;1999.90;999.90;;;;;;;32.53;90.71;95276.06;5006961;28;20218;-51
2023/09/16 09:13:16;;;;;;;1999.90;999.90;;;;;;;32.38;92.87;95279.50;5006887;28;20207;-49
2023/09/16 09:15:43;;;;;;;1999.90;999.90;;;;;;;32.27;92.78;95276.91;5007457;28;20195;-54
2023/09/16 09:18:12;;;;;;;1999.90;999.90;;;;;;;32.58;93.56;95278.00;5006828;28;20219;-55
2023/09/16 09:20:37;;;;;;;1999.90;999.90;;;;;;;32.48;95.38;95279.81;5007240;28;20196;-47
2023/09/16 09:23:03;;;;;;;1999.90;999.90;;;;;;;31.98;96.38;95278.09;5006612;28;20246;-49
2023/09/16 09:25:29;;;;;;;1999.90;999.90;;;;;;;32.01;95.91;95281.88;5006852;28;20246;-49
2023/09/16 09:27:56;;;;;;;1999.90;999.90;;;;;;;32.46;97.06;95276.75;5006694;28;20192;-56
2023/09/16 09:30:27;;;;;;;1999.90;999.90;;;;;;;33.12;93.48;95280.78;5006594;28;20234;-59
2023/09/16 09:32:55;;;;;;;1999.90;999.90;;;;;;;33.80;83.75;95276.31;5007004;28;20208;-56
2023/09/16 09:35:31;;;;;;;1999.90;999.90;;;;;;;32.98;86.31;95280.09;5006726;28;20242;-56
2023/09/16 09:37:57;;;;;;;1999.90;999.90;;;;;;;32.50;96.04;95280.75;5007142;28;20234;-57
2023/09/16 09:40:24;;;;;;;1999.90;999.90;;;;;;;33.49;89.26;95272.56;5006611;28;20227;-55
2023/09/16 09:42:53;;;;;;;1999.90;999.90;;;;;;;33.31;84.61;95275.63;5006141;28;20223;-59
2023/09/16 09:45:20;;;;;;;1999.90;999.90;;;;;;;33.17;86.37;95262.84;5006390;28;20279;-59
2023/09/16 09:47:47;;;;;;;1999.90;999.90;;;;;;;32.76;85.07;95272.16;5006216;28;20192;-59
2023/09/16 09:50:19;;;;;;;1999.90;999.90;;;;;;;33.41;85.76;95268.94;5006520;28;20223;-59
2023/09/16 09:52:48;;;;;;;1999.90;999.90;;;;;;;33.08;86.09;95269.81;5006640;28;20204;-58
2023/09/16 09:55:18;;;;;;;1999.90;999.90;;;;;;;32.66;88.36;95273.19;5006435;28;20191;-57
2023/09/16 09:57:48;;;;;;;1999.90;999.90;;;;;;;32.86;90.57;95263.94;5006423;28;20258;-57
2023/09/16 10:00:16;;;;;;;1999.90;999.90;;;;;;;31.90;93.83;95265.91;5006359;28;20227;-58
2023/09/16 10:02:42;;;;;;;1999.90;999.90;;;;;;;31.67;100.00;95264.84;5006340;28;20203;-59
2023/09/16 10:05:12;;;;;;;1999.90;999.90;;;;;;;32.06;97.60;95259.16;5006051;28;20204;-58
2023/09/16 10:07:42;;;;;;;1999.90;999.90;;;;;;;31.79;96.85;95265.41;5005886;28;20271;-59
2023/09/16 10:10:21;;;;;;;1999.90;999.90;;;;;;;31.66;100.00;95256.91;5006176;28;20198;-58
2023/09/16 10:12:54;;;;;;;1999.90;999.90;;;;;;;32.08;97.19;95253.69;5005981;28;20274;-56
2023/09/16 10:15:32;;;;;;;1999.90;999.90;;;;;;;32.44;95.25;95262.41;5005859;28;20223;-56
2023/09/16 10:17:57;;;;;;;1999.90;999.90;;;;;;;32.50;93.24;95255.31;5006219;28;20242;-58
2023/09/16 10:20:23;;;;;;;1999.90;999.90;;;;;;;33.36;84.35;95244.31;5005740;28;20196;-57
2023/09/16 10:22:49;;;;;;;1999.90;999.90;;;;;;;33.49;86.42;95247.06;5005642;28;20192;-56
2023/09/16 10:25:17;;;;;;;1999.90;999.90;;;;;;;33.55;89.05;95244.84;5005935;28;20252;-53
2023/09/16 10:28:07;;;;;;;1999.90;999.90;;;;;;;33.91;81.33;95246.91;5005935;28;20179;-57
2023/09/16 10:30:34;;;;;;;1999.90;999.90;;;;;;;33.30;82.80;95248.59;4995879;28;20370;-57
2023/09/16 10:33:01;;;;;;;1999.90;999.90;;;;;;;32.87;84.90;95254.91;5005603;28;20211;-58
2023/09/16 10:35:30;;;;;;;1999.90;999.90;;;;;;;33.46;82.31;95247.41;5005476;28;20251;-57
2023/09/16 10:37:59;;;;;;;1999.90;999.90;;;;;;;33.09;85.48;95243.00;5005349;28;20195;-57
2023/09/16 10:40:25;;;;;;;1999.90;999.90;;;;;;;33.06;81.31;95240.50;5005348;28;20188;-56
2023/09/16 10:42:52;;;;;;;1999.90;999.90;;;;;;;32.74;85.88;95246.44;5005279;28;20327;-57
2023/09/16 10:45:18;;;;;;;1999.90;999.90;;;;;;;33.62;80.56;95238.44;5005234;28;20208;-57